Time;durP1;ratioP1;P1;durP2;ratioP2;P2;SDS_P1;SDS_P2;PMS_P1;PMS_P2;Temp;Humidity;BMP_temperature;BMP_pressure;BME280_temperature;BME280_humidity;BME280_pressure;Samples;Min_cycle;Max_cycle;Signal;HPM_P1;HPM_P2
2023/08/09 00:01:44;;;;;;;2.22;1.13;;;19.50;83.40;;;;;;4968086;28;20130;-31
2023/08/09 00:04:11;;;;;;;1.73;1.10;;;19.90;83.00;;;;;;4958676;28;20086;-30
2023/08/09 00:06:38;;;;;;;2.38;1.08;;;20.10;78.60;;;;;;4952151;28;20638;-30
2023/08/09 00:09:05;;;;;;;1.63;1.10;;;19.90;83.50;;;;;;4952131;28;20130;-30
2023/08/09 00:11:32;;;;;;;1.50;1.00;;;;;;;;;;4951894;28;20074;-33
2023/08/09 00:13:59;;;;;;;0.95;0.85;;;;;;;;;;4952071;28;20126;-30
2023/08/09 00:16:27;;;;;;;3.70;1.25;;;19.80;65.00;;;;;;4958143;28;20129;-34
2023/08/09 00:18:54;;;;;;;1.58;1.00;;;;;;;;;;4971460;28;20427;-32
2023/08/09 00:21:21;;;;;;;1.90;1.42;;;20.00;82.90;;;;;;4957433;28;20134;-30
2023/08/09 00:23:48;;;;;;;1.65;1.00;;;;;;;;;;4951614;28;20082;-34
2023/08/09 00:26:15;;;;;;;1.55;1.00;;;19.50;80.50;;;;;;4951890;28;20055;-30
2023/08/09 00:28:42;;;;;;;1.60;0.95;;;18.70;82.20;;;;;;4951887;28;20135;-30
2023/08/09 00:31:08;;;;;;;1.98;1.10;;;20.30;72.30;;;;;;4951492;28;20109;-31
2023/08/09 00:33:36;;;;;;;1.65;1.05;;;20.50;83.10;;;;;;4951402;28;20465;-30
2023/08/09 00:36:03;;;;;;;1.65;1.10;;;19.60;82.90;;;;;;4953058;28;20138;-30
2023/08/09 00:38:30;;;;;;;1.23;1.10;;;19.30;82.90;;;;;;4971059;28;20133;-30
2023/08/09 00:40:57;;;;;;;1.48;1.00;;;20.20;78.40;;;;;;4971189;28;20089;-31
2023/08/09 00:43:23;;;;;;;2.70;0.98;;;19.80;83.20;;;;;;4965077;28;20122;-30
2023/08/09 00:45:50;;;;;;;1.95;1.00;;;20.00;83.80;;;;;;4951830;28;20134;-29
2023/08/09 00:48:18;;;;;;;1.50;1.10;;;20.60;71.40;;;;;;4951721;28;20122;-31
2023/08/09 00:50:46;;;;;;;1.10;1.00;;;20.60;67.90;;;;;;4951466;28;20138;-32
2023/08/09 00:53:13;;;;;;;3.83;1.00;;;18.60;76.60;;;;;;4954702;28;20130;-31
2023/08/09 00:55:40;;;;;;;1.58;1.00;;;19.50;83.00;;;;;;4970919;28;20134;-30
2023/08/09 00:58:06;;;;;;;1.15;0.93;;;19.40;83.00;;;;;;4970960;28;20133;-30
2023/08/09 01:00:33;;;;;;;1.60;1.00;;;;;;;;;;4963948;28;20079;-32
2023/08/09 01:03:00;;;;;;;2.20;1.10;;;20.00;83.40;;;;;;4951126;28;20134;-30
2023/08/09 01:05:30;;;;;;;1.95;1.20;;;19.70;65.10;;;;;;4951093;28;20130;-34
2023/08/09 01:08:01;;;;;;;1.48;1.10;;;19.80;65.20;;;;;;4951611;28;20058;-34
2023/08/09 01:10:31;;;;;;;2.30;1.27;;;18.80;77.40;;;;;;4951133;28;20130;-30
2023/08/09 01:12:59;;;;;;;1.60;1.00;;;20.60;83.30;;;;;;4951365;28;20059;-30
2023/08/09 01:15:26;;;;;;;1.83;1.10;;;;;;;;;;4951147;28;20130;-32
2023/08/09 01:17:54;;;;;;;1.90;1.00;;;;;;;;;;4966727;28;20082;-30
2023/08/09 01:20:21;;;;;;;1.80;1.10;;;20.20;83.30;;;;;;4970296;28;20058;-30
2023/08/09 01:22:51;;;;;;;1.75;1.20;;;20.00;68.60;;;;;;4970149;28;20078;-32
2023/08/09 01:25:19;;;;;;;1.40;1.08;;;19.70;73.10;;;;;;4951374;29;20050;-31
2023/08/09 01:27:46;;;;;;;2.55;1.20;;;20.20;71.00;;;;;;4951023;28;20135;-31
2023/08/09 01:30:13;;;;;;;2.38;1.33;;;20.00;83.40;;;;;;4950773;28;20134;-30
2023/08/09 01:32:40;;;;;;;1.33;1.08;;;;;;;;;;4950640;28;20090;-34
2023/08/09 01:35:07;;;;;;;1.75;1.20;;;19.60;82.80;;;;;;4951159;28;20091;-30
2023/08/09 01:37:37;;;;;;;1.52;1.10;;;19.50;67.10;;;;;;4964551;28;20126;-32
2023/08/09 01:40:08;;;;;;;1.60;1.10;;;19.80;83.30;;;;;;4964193;28;20135;-30
2023/08/09 01:42:36;;;;;;;2.25;1.27;;;18.80;66.30;;;;;;4950680;28;20063;-33
2023/08/09 01:45:04;;;;;;;1.80;1.25;;;;;;;;;;4952509;28;20134;-32
2023/08/09 01:47:32;;;;;;;1.75;1.20;;;;;;;;;;4954242;29;20050;-32
2023/08/09 01:49:59;;;;;;;1.80;1.20;;;19.70;82.90;;;;;;4954024;28;20126;-30
2023/08/09 01:52:26;;;;;;;2.65;1.40;;;19.70;83.40;;;;;;4954508;28;20144;-30
2023/08/09 01:54:53;;;;;;;1.67;1.23;;;19.90;69.20;;;;;;4954229;28;20055;-31
2023/08/09 01:57:20;;;;;;;1.65;1.13;;;19.90;83.20;;;;;;4954439;28;20055;-30
2023/08/09 01:59:48;;;;;;;2.03;1.25;;;19.60;65.20;;;;;;4954388;28;20126;-33
2023/08/09 02:02:15;;;;;;;1.63;1.27;;;;;;;;;;4972933;28;20519;-33
2023/08/09 02:04:42;;;;;;;1.90;1.35;;;20.10;83.30;;;;;;4973542;28;20472;-29
2023/08/09 02:07:09;;;;;;;1.83;1.38;;;18.60;82.80;;;;;;4973426;28;20167;-30
2023/08/09 02:09:35;;;;;;;1.92;1.30;;;20.00;70.00;;;;;;4970807;28;20580;-31
2023/08/09 02:12:02;;;;;;;1.90;1.50;;;20.00;83.20;;;;;;4953989;28;20412;-30
2023/08/09 02:14:29;;;;;;;2.22;1.50;;;;;;;;;;4964108;28;20135;-30
2023/08/09 02:16:59;;;;;;;2.03;1.30;;;20.20;73.10;;;;;;4956695;28;20130;-30
2023/08/09 02:19:26;;;;;;;2.03;1.33;;;;;;;;;;4954469;28;20051;-35
2023/08/09 02:21:52;;;;;;;1.77;1.40;;;19.90;83.30;;;;;;4972942;28;20133;-30
2023/08/09 02:24:20;;;;;;;2.42;1.45;;;19.30;83.20;;;;;;4972899;28;20082;-30
2023/08/09 02:26:48;;;;;;;2.28;1.40;;;;;;;;;;4972778;28;20055;-32
2023/08/09 02:29:14;;;;;;;2.38;1.40;;;19.40;83.30;;;;;;4972813;28;20137;-30
2023/08/09 02:31:41;;;;;;;1.35;1.20;;;19.40;83.40;;;;;;4968673;28;20129;-30
2023/08/09 02:34:09;;;;;;;1.38;1.20;;;19.50;65.20;;;;;;4972792;28;20069;-35
2023/08/09 02:36:37;;;;;;;1.98;1.38;;;;;;;;;;4972250;28;20058;-33
2023/08/09 02:39:05;;;;;;;2.17;1.40;;;;;;;;;;4972602;28;20158;-30
2023/08/09 02:41:31;;;;;;;2.10;1.40;;;20.30;83.60;;;;;;4955472;28;20055;-30
2023/08/09 02:43:58;;;;;;;1.92;1.30;;;;;;;;;;4953238;28;20130;-33
2023/08/09 02:46:25;;;;;;;1.75;1.30;;;19.80;83.30;;;;;;4953257;28;20055;-30
2023/08/09 02:48:52;;;;;;;1.60;1.40;;;19.40;83.40;;;;;;4953649;28;20501;-30
2023/08/09 02:51:20;;;;;;;1.75;1.05;;;19.30;76.90;;;;;;4953423;28;20131;-30
2023/08/09 02:54:00;;;;;;;2.00;1.30;;;18.50;74.30;;;;;;4953390;28;20125;-30
2023/08/09 02:56:27;;;;;;;1.95;1.30;;;;;;;;;;4953469;28;20082;-33
2023/08/09 02:58:54;;;;;;;1.73;1.33;;;19.80;83.30;;;;;;4953052;28;20049;-30
2023/08/09 03:01:22;;;;;;;3.20;1.42;;;;;;;;;;4965893;28;20523;-33
2023/08/09 03:03:49;;;;;;;1.90;1.30;;;20.00;81.00;;;;;;4972267;28;20074;-30
2023/08/09 03:06:17;;;;;;;1.50;1.17;;;20.50;84.10;;;;;;4972363;28;20129;-30
2023/08/09 03:08:45;;;;;;;2.20;1.30;;;20.00;83.80;;;;;;4969980;28;20082;-30
2023/08/09 03:11:12;;;;;;;1.63;1.35;;;18.40;82.90;;;;;;4966509;28;20138;-30
2023/08/09 03:13:39;;;;;;;2.30;1.50;;;20.30;83.70;;;;;;4972187;28;20055;-30
2023/08/09 03:16:06;;;;;;;2.17;1.40;;;19.20;76.70;;;;;;4972182;28;20134;-30
2023/08/09 03:18:32;;;;;;;2.17;1.40;;;19.20;83.10;;;;;;4972239;28;20046;-29
2023/08/09 03:20:59;;;;;;;1.63;1.30;;;;;;;;;;4960426;28;20179;-35
2023/08/09 03:23:26;;;;;;;2.65;1.50;;;;;;;;;;4952680;28;20074;-29
2023/08/09 03:25:55;;;;;;;1.50;1.40;;;19.40;65.20;;;;;;4952783;28;20139;-34
2023/08/09 03:28:22;;;;;;;1.90;1.33;;;;;;;;;;4952923;28;20055;-33
2023/08/09 03:30:48;;;;;;;3.85;1.58;;;19.40;83.50;;;;;;4952682;28;20078;-29
2023/08/09 03:33:15;;;;;;;1.73;1.15;;;18.80;83.70;;;;;;4952443;28;20134;-29
2023/08/09 03:35:42;;;;;;;1.40;1.27;;;18.50;70.60;;;;;;4952737;28;20047;-31
2023/08/09 03:38:10;;;;;;;1.70;1.38;;;19.50;75.00;;;;;;4970458;28;20527;-29
2023/08/09 03:40:36;;;;;;;1.77;1.40;;;19.80;82.80;;;;;;4963213;28;20051;-30
2023/08/09 03:43:04;;;;;;;1.60;1.30;;;20.40;84.10;;;;;;4952664;28;20137;-30
2023/08/09 03:45:31;;;;;;;2.13;1.60;;;;;;;;;;4952360;28;20062;-31
2023/08/09 03:47:58;;;;;;;1.55;1.40;;;18.40;72.60;;;;;;4952457;28;20134;-31
2023/08/09 03:50:25;;;;;;;2.42;1.45;;;;;;;;;;4952249;28;20465;-30
2023/08/09 03:52:52;;;;;;;1.70;1.50;;;;;;;;;;4950872;29;20422;-33
2023/08/09 03:55:19;;;;;;;1.60;1.27;;;18.70;82.90;;;;;;4959744;28;20126;-30
2023/08/09 03:57:46;;;;;;;1.80;1.30;;;;;;;;;;4962306;28;20138;-34
2023/08/09 04:00:17;;;;;;;1.38;1.27;;;19.90;83.40;;;;;;4959500;28;20126;-30
2023/08/09 04:02:45;;;;;;;2.05;1.40;;;;;;;;;;4958245;28;20047;-29
2023/08/09 04:05:12;;;;;;;2.15;1.50;;;19.20;83.10;;;;;;4963397;28;20086;-29
2023/08/09 04:07:39;;;;;;;1.90;1.35;;;;;;;;;;4957550;28;20126;-34
2023/08/09 04:10:06;;;;;;;1.42;1.20;;;19.10;79.80;;;;;;4952119;28;20130;-29
2023/08/09 04:12:33;;;;;;;1.80;1.30;;;19.80;72.50;;;;;;4951986;28;20052;-31
2023/08/09 04:15:00;;;;;;;1.75;1.27;;;;;;;;;;4952166;28;20051;-31
2023/08/09 04:17:28;;;;;;;2.25;1.55;;;19.40;65.20;;;;;;4959342;28;20096;-34
2023/08/09 04:19:55;;;;;;;2.08;1.42;;;;;;;;;;4971305;28;20138;-34
2023/08/09 04:22:22;;;;;;;1.88;1.48;;;19.70;83.30;;;;;;4970797;28;20142;-29
2023/08/09 04:24:49;;;;;;;3.00;1.70;;;;;;;;;;4971510;28;20078;-32
2023/08/09 04:27:16;;;;;;;2.03;1.45;;;19.80;80.70;;;;;;4965223;28;20130;-30
2023/08/09 04:29:42;;;;;;;2.60;1.58;;;19.70;83.80;;;;;;4951693;28;20144;-29
2023/08/09 04:32:09;;;;;;;1.90;1.50;;;20.40;83.90;;;;;;4951927;28;20155;-30
2023/08/09 04:34:37;;;;;;;1.70;1.45;;;19.80;74.60;;;;;;4952163;28;20802;-31
2023/08/09 04:37:05;;;;;;;2.05;1.30;;;19.00;72.00;;;;;;4957356;28;20138;-33
2023/08/09 04:39:32;;;;;;;2.03;1.60;;;;;;;;;;4963798;28;20088;-30
2023/08/09 04:41:58;;;;;;;2.17;1.58;;;19.40;83.60;;;;;;4961424;28;20127;-31
2023/08/09 04:44:26;;;;;;;1.52;1.42;;;19.50;83.40;;;;;;4959469;28;20048;-30
2023/08/09 04:46:53;;;;;;;2.85;1.60;;;19.60;83.40;;;;;;4962806;28;20062;-30
2023/08/09 04:49:20;;;;;;;2.42;1.48;;;;;;;;;;4961726;28;20149;-35
2023/08/09 04:51:48;;;;;;;1.88;1.40;;;19.80;83.80;;;;;;4961752;28;20126;-30
2023/08/09 04:54:15;;;;;;;3.50;1.63;;;19.20;83.20;;;;;;4956215;28;20086;-31
2023/08/09 04:56:42;;;;;;;2.38;1.65;;;19.10;83.20;;;;;;4962672;28;20070;-30
2023/08/09 04:59:08;;;;;;;2.42;1.52;;;19.60;66.10;;;;;;4961571;28;20122;-33
2023/08/09 05:01:35;;;;;;;2.28;1.60;;;19.10;83.40;;;;;;4961633;28;20133;-30
2023/08/09 05:04:02;;;;;;;2.83;1.77;;;19.30;83.30;;;;;;4961407;28;20205;-30
2023/08/09 05:06:29;;;;;;;1.90;1.48;;;19.00;83.60;;;;;;4959653;28;20040;-30
2023/08/09 05:08:57;;;;;;;1.90;1.50;;;18.90;83.40;;;;;;4963482;28;20071;-30
2023/08/09 05:11:24;;;;;;;2.92;1.60;;;;;;;;;;4959451;28;20126;-34
2023/08/09 05:13:51;;;;;;;1.98;1.50;;;19.60;73.90;;;;;;4958460;28;20496;-31
2023/08/09 05:16:24;;;;;;;2.03;1.42;;;19.00;83.00;;;;;;4960593;28;20126;-31
2023/08/09 05:18:51;;;;;;;2.47;1.70;;;19.20;83.20;;;;;;4960272;28;20544;-30
2023/08/09 05:21:17;;;;;;;2.00;1.50;;;18.90;77.90;;;;;;4960237;28;20046;-31
2023/08/09 05:23:44;;;;;;;1.88;1.50;;;19.30;83.70;;;;;;4960370;28;20548;-30
2023/08/09 05:26:12;;;;;;;2.20;1.60;;;19.20;65.10;;;;;;4960630;28;20074;-30
2023/08/09 05:28:39;;;;;;;1.95;1.50;;;;;;;;;;4985507;28;20451;-31
2023/08/09 05:31:06;;;;;;;2.25;1.45;;;;;;;;;;4978935;28;20122;-31
2023/08/09 05:33:33;;;;;;;2.20;1.58;;;;;;;;;;4960250;28;20143;-36
2023/08/09 05:36:00;;;;;;;2.42;1.50;;;19.60;73.90;;;;;;4959908;28;20097;-36
2023/08/09 05:38:27;;;;;;;1.88;1.60;;;;;;;;;;4961076;28;20054;-36
2023/08/09 05:40:55;;;;;;;1.88;1.45;;;19.00;82.90;;;;;;4959949;28;20441;-35
2023/08/09 05:43:23;;;;;;;1.80;1.50;;;19.20;65.10;;;;;;4960950;28;20453;-37
2023/08/09 05:45:50;;;;;;;2.42;1.40;;;;;;;;;;4960993;28;20130;-33
2023/08/09 05:48:17;;;;;;;2.42;1.60;;;18.40;82.70;;;;;;4962095;28;20086;-35
2023/08/09 05:50:44;;;;;;;2.97;2.03;;;18.80;83.20;;;;;;4958244;28;20134;-37
2023/08/09 05:53:10;;;;;;;1.58;1.48;;;19.20;83.80;;;;;;4959647;28;20051;-34
2023/08/09 05:55:38;;;;;;;2.20;1.60;;;19.10;84.10;;;;;;4960744;28;20464;-34
2023/08/09 05:58:05;;;;;;;1.95;1.50;;;18.90;68.80;;;;;;4959228;28;20481;-35
2023/08/09 06:00:33;;;;;;;2.35;1.45;;;19.20;64.90;;;;;;4957460;28;20051;-34
2023/08/09 06:03:01;;;;;;;2.47;1.73;;;;;;;;;;4960501;28;20567;-32
2023/08/09 06:05:28;;;;;;;1.75;1.45;;;19.80;83.70;;;;;;4960614;28;20047;-35
2023/08/09 06:07:55;;;;;;;1.63;1.23;;;19.20;76.00;;;;;;4970061;28;20128;-37
2023/08/09 06:10:22;;;;;;;2.00;1.42;;;19.00;83.20;;;;;;4961192;28;20126;-36
2023/08/09 06:12:49;;;;;;;2.13;1.58;;;19.70;83.60;;;;;;4958338;28;20135;-36
2023/08/09 06:15:16;;;;;;;1.65;1.27;;;18.60;83.30;;;;;;4959970;28;20125;-38
2023/08/09 06:17:44;;;;;;;1.90;1.48;;;19.10;66.20;;;;;;4959964;28;20152;-32
2023/08/09 06:20:12;;;;;;;1.40;1.30;;;19.20;64.90;;;;;;4958529;28;20122;-35
2023/08/09 06:22:39;;;;;;;1.73;1.30;;;18.70;83.40;;;;;;4957225;28;20415;-36
2023/08/09 06:25:06;;;;;;;2.03;1.30;;;19.50;83.90;;;;;;4953664;28;20127;-37
2023/08/09 06:27:34;;;;;;;1.30;1.15;;;19.20;68.60;;;;;;4963922;28;20134;-34
2023/08/09 06:30:00;;;;;;;2.70;1.30;;;19.50;83.80;;;;;;4969457;28;20500;-37
2023/08/09 06:32:28;;;;;;;1.50;1.30;;;20.30;68.70;;;;;;4972516;28;20134;-38
2023/08/09 06:34:56;;;;;;;1.70;1.30;;;19.40;83.80;;;;;;4972868;28;20609;-39
2023/08/09 06:37:23;;;;;;;2.47;1.30;;;;;;;;;;4971587;28;20452;-37
2023/08/09 06:39:50;;;;;;;1.85;1.30;;;19.00;83.60;;;;;;4972979;28;20137;-36
2023/08/09 06:42:17;;;;;;;1.80;1.25;;;18.80;83.10;;;;;;4972618;28;20134;-35
2023/08/09 06:44:44;;;;;;;1.40;1.23;;;18.00;69.50;;;;;;4972581;28;20055;-34
2023/08/09 06:47:11;;;;;;;1.92;1.30;;;19.30;83.70;;;;;;4971843;28;20126;-35
2023/08/09 06:49:37;;;;;;;1.45;1.20;;;18.80;83.50;;;;;;4972734;28;20059;-39
2023/08/09 06:52:06;;;;;;;1.45;1.27;;;19.40;78.10;;;;;;4972383;28;20133;-33
2023/08/09 06:54:32;;;;;;;1.50;1.15;;;18.90;83.10;;;;;;4963658;28;20134;-38
2023/08/09 06:56:59;;;;;;;1.40;1.10;;;19.80;84.00;;;;;;4969869;28;20465;-36
2023/08/09 06:59:26;;;;;;;2.58;1.20;;;;;;;;;;4972682;28;20135;-33
2023/08/09 07:01:53;;;;;;;1.33;1.13;;;19.50;83.90;;;;;;4954837;28;20483;-37
2023/08/09 07:04:20;;;;;;;1.42;1.10;;;19.10;83.20;;;;;;4953272;28;20057;-39
2023/08/09 07:06:47;;;;;;;1.83;1.13;;;19.70;83.50;;;;;;4968451;28;20055;-37
2023/08/09 07:09:18;;;;;;;1.40;1.20;;;19.50;83.40;;;;;;4972322;28;20141;-37
2023/08/09 07:11:45;;;;;;;1.30;1.10;;;;;;;;;;4972259;28;20113;-32
2023/08/09 07:14:13;;;;;;;2.28;1.38;;;;;;;;;;4972045;28;20050;-36
2023/08/09 07:16:39;;;;;;;1.75;1.15;;;18.90;83.40;;;;;;4957717;28;20087;-37
2023/08/09 07:19:06;;;;;;;1.83;1.25;;;;;;;;;;4953012;28;20137;-36
2023/08/09 07:21:33;;;;;;;1.20;1.10;;;19.20;81.70;;;;;;4953194;28;20143;-34
2023/08/09 07:24:00;;;;;;;1.90;1.20;;;19.50;83.40;;;;;;4957693;28;20221;-36
2023/08/09 07:26:28;;;;;;;1.73;1.13;;;18.20;82.70;;;;;;4960203;28;20047;-37
2023/08/09 07:28:55;;;;;;;2.17;1.10;;;;;;;;;;4953185;28;20560;-34
2023/08/09 07:31:23;;;;;;;1.25;1.08;;;19.20;83.60;;;;;;4960233;28;20081;-37
2023/08/09 07:33:49;;;;;;;2.40;1.10;;;19.80;83.60;;;;;;4959745;28;20039;-37
2023/08/09 07:36:16;;;;;;;1.70;1.17;;;19.20;83.70;;;;;;4959776;28;20125;-37
2023/08/09 07:38:44;;;;;;;1.77;1.13;;;;;;;;;;4961956;28;20051;-33
2023/08/09 07:41:10;;;;;;;1.70;1.10;;;19.70;83.60;;;;;;4962511;28;20047;-36
2023/08/09 07:43:39;;;;;;;1.13;0.98;;;19.30;65.10;;;;;;4959077;28;20139;-36
2023/08/09 07:46:06;;;;;;;1.88;1.10;;;;;;;;;;4961913;28;20057;-34
2023/08/09 07:48:33;;;;;;;1.20;1.10;;;19.60;83.50;;;;;;4961571;28;20130;-38
2023/08/09 07:51:00;;;;;;;2.40;1.33;;;;;;;;;;4958461;28;20136;-35
2023/08/09 07:53:26;;;;;;;2.47;1.10;;;19.10;82.80;;;;;;4962432;28;20575;-36
2023/08/09 07:55:53;;;;;;;4.13;1.10;;;19.30;83.50;;;;;;4961902;28;20129;-37
2023/08/09 07:58:20;;;;;;;1.45;0.95;;;19.00;72.10;;;;;;4967891;28;20051;-37
2023/08/09 08:00:49;;;;;;;1.52;1.00;;;19.30;65.10;;;;;;4962867;28;20126;-34
2023/08/09 08:03:15;;;;;;;1.83;1.10;;;19.40;83.40;;;;;;4959254;28;20043;-38
2023/08/09 08:05:42;;;;;;;2.85;1.17;;;19.60;70.10;;;;;;4954967;28;20479;-38
2023/08/09 08:08:09;;;;;;;2.30;1.10;;;20.60;83.80;;;;;;4952274;28;20510;-36
2023/08/09 08:10:36;;;;;;;1.92;1.23;;;19.40;83.50;;;;;;4952029;28;20130;-36
2023/08/09 08:13:03;;;;;;;1.13;0.93;;;19.00;73.70;;;;;;4951990;28;20555;-38
2023/08/09 08:15:29;;;;;;;1.48;1.05;;;19.00;83.00;;;;;;4958330;28;20130;-38
2023/08/09 08:17:57;;;;;;;2.08;1.20;;;20.10;83.80;;;;;;4970986;28;20134;-38
2023/08/09 08:20:24;;;;;;;1.58;1.20;;;20.00;83.40;;;;;;4956103;28;20156;-40
2023/08/09 08:22:51;;;;;;;2.15;1.30;;;;;;;;;;4963798;28;20527;-34
2023/08/09 08:25:19;;;;;;;1.85;1.20;;;19.60;82.90;;;;;;4960540;28;20583;-36
2023/08/09 08:27:46;;;;;;;1.15;1.00;;;19.80;83.30;;;;;;4970145;28;20060;-38
2023/08/09 08:30:13;;;;;;;2.42;1.20;;;19.70;64.80;;;;;;4959998;28;20070;-35
2023/08/09 08:32:41;;;;;;;4.53;1.00;;;20.20;83.30;;;;;;4961343;28;20055;-31
2023/08/09 08:35:13;;;;;;;1.17;0.90;;;18.60;81.80;;;;;;4961820;28;20049;-31
2023/08/09 08:37:39;;;;;;;2.40;1.40;;;19.90;80.40;;;;;;4958528;28;20088;-31
2023/08/09 08:40:08;;;;;;;2.65;1.10;;;20.60;83.00;;;;;;4961258;28;20051;-29
2023/08/09 08:42:35;;;;;;;3.10;1.15;;;;;;;;;;4959959;28;20173;-35
2023/08/09 08:45:09;;;;;;;2.67;1.30;;;19.80;82.40;;;;;;4961351;28;20054;-36
2023/08/09 08:47:37;;;;;;;1.70;1.20;;;19.70;82.60;;;;;;4957612;28;20066;-37
2023/08/09 08:50:04;;;;;;;2.38;1.10;;;20.20;78.40;;;;;;4960770;28;20470;-36
2023/08/09 08:52:32;;;;;;;2.47;1.13;;;19.70;82.50;;;;;;4957799;28;20138;-38
2023/08/09 08:54:59;;;;;;;1.58;1.00;;;20.50;80.20;;;;;;4965574;28;20129;-40
2023/08/09 08:57:26;;;;;;;1.75;1.10;;;;;;;;;;4962562;28;20130;-35
2023/08/09 08:59:53;;;;;;;1.70;1.30;;;20.10;82.30;;;;;;4955977;28;20500;-38
2023/08/09 09:02:20;;;;;;;3.22;1.20;;;;;;;;;;4958574;28;20050;-33
2023/08/09 09:04:47;;;;;;;2.80;1.10;;;19.90;82.00;;;;;;4960827;28;20047;-34
2023/08/09 09:07:13;;;;;;;2.17;1.20;;;19.90;81.80;;;;;;4959046;28;20126;-36
2023/08/09 09:09:45;;;;;;;2.80;1.10;;;21.20;70.00;;;;;;4959492;28;20081;-37
2023/08/09 09:12:12;;;;;;;2.90;1.10;;;20.60;68.10;;;;;;4966713;28;20544;-34
2023/08/09 09:14:39;;;;;;;2.83;1.30;;;;;;;;;;4959799;28;20043;-38
2023/08/09 09:17:06;;;;;;;1.80;1.15;;;;;;;;;;4961511;28;20471;-32
2023/08/09 09:19:36;;;;;;;1.42;0.90;;;20.30;81.20;;;;;;4959144;28;20043;-39
2023/08/09 09:22:04;;;;;;;2.50;1.10;;;;;;;;;;4959033;28;20051;-36
2023/08/09 09:24:31;;;;;;;4.38;1.35;;;;;;;;;;4961202;28;20043;-32
2023/08/09 09:26:59;;;;;;;2.05;1.08;;;20.00;81.30;;;;;;4958833;28;20126;-31
2023/08/09 09:29:31;;;;;;;3.63;1.27;;;20.70;82.10;;;;;;4960330;28;20075;-30
2023/08/09 09:31:59;;;;;;;3.08;1.10;;;20.40;82.10;;;;;;4959397;28;20126;-30
2023/08/09 09:34:29;;;;;;;1.55;1.10;;;20.50;82.10;;;;;;4963955;28;20043;-29
2023/08/09 09:36:56;;;;;;;1.33;0.93;;;20.40;81.90;;;;;;4957970;28;20177;-31
2023/08/09 09:39:23;;;;;;;4.63;1.27;;;;;;;;;;4950087;28;20047;-32
2023/08/09 09:41:50;;;;;;;2.13;1.40;;;20.20;81.10;;;;;;4950445;28;20047;-30
2023/08/09 09:44:20;;;;;;;1.88;1.00;;;20.00;72.70;;;;;;4954565;28;20129;-31
2023/08/09 09:46:47;;;;;;;2.83;1.55;;;21.00;81.30;;;;;;4963301;28;20158;-33
2023/08/09 09:49:14;;;;;;;2.67;1.08;;;21.30;76.10;;;;;;4955866;28;20075;-30
2023/08/09 09:51:40;;;;;;;2.20;1.52;;;20.90;81.50;;;;;;4962342;28;20047;-30
2023/08/09 09:54:08;;;;;;;2.75;1.30;;;;;;;;;;4971283;28;20134;-33
2023/08/09 09:56:35;;;;;;;3.50;1.20;;;20.10;81.80;;;;;;4950939;28;20552;-30
2023/08/09 09:59:03;;;;;;;2.67;1.00;;;20.10;81.40;;;;;;4950566;28;20500;-29
2023/08/09 10:01:32;;;;;;;2.28;0.95;;;20.80;81.70;;;;;;4959768;28;20055;-30
2023/08/09 10:04:06;;;;;;;2.92;1.35;;;20.70;81.80;;;;;;4959914;28;20131;-30
2023/08/09 10:06:35;;;;;;;1.92;1.10;;;20.60;81.50;;;;;;4962726;28;20085;-31
2023/08/09 10:09:04;;;;;;;2.78;1.00;;;;;;;;;;4962781;28;20128;-33
2023/08/09 10:11:32;;;;;;;1.05;0.90;;;20.20;82.00;;;;;;4962515;28;20054;-31
2023/08/09 10:14:00;;;;;;;2.35;1.10;;;21.20;81.80;;;;;;4961632;28;20467;-30
2023/08/09 10:16:27;;;;;;;2.90;1.17;;;21.10;81.90;;;;;;4961089;28;20126;-30
2023/08/09 10:18:58;;;;;;;2.60;1.02;;;20.60;63.30;;;;;;4961500;28;20134;-31
2023/08/09 10:21:24;;;;;;;1.55;1.10;;;21.00;68.60;;;;;;4961381;28;20141;-31
2023/08/09 10:23:55;;;;;;;1.27;1.10;;;21.10;81.20;;;;;;4961389;28;20393;-30
2023/08/09 10:26:27;;;;;;;1.67;1.00;;;20.40;80.70;;;;;;4963353;28;20583;-30
2023/08/09 10:29:01;;;;;;;1.63;1.02;;;20.70;63.10;;;;;;4963448;28;20075;-34
2023/08/09 10:31:54;;;;;;;2.42;1.23;;;20.50;73.60;;;;;;4974924;28;20496;-30
2023/08/09 10:34:23;;;;;;;2.10;1.20;;;20.20;62.90;;;;;;4973474;28;20046;-33
2023/08/09 10:36:54;;;;;;;1.55;1.00;;;21.40;81.40;;;;;;4960782;28;20078;-34
2023/08/09 10:39:21;;;;;;;1.05;0.93;;;;;;;;;;4959711;28;20074;-33
2023/08/09 10:41:55;;;;;;;1.10;1.00;;;21.20;82.10;;;;;;4959886;28;20046;-35
2023/08/09 10:44:32;;;;;;;1.05;0.90;;;20.20;81.10;;;;;;4962491;28;20126;-38
2023/08/09 10:47:02;;;;;;;1.80;1.00;;;20.60;63.10;;;;;;4961550;28;20043;-36
2023/08/09 10:49:35;;;;;;;1.23;0.95;;;20.20;81.10;;;;;;4962225;28;20046;-37
2023/08/09 10:52:12;;;;;;;1.65;1.00;;;21.50;79.80;;;;;;4962041;28;20073;-38
2023/08/09 10:54:39;;;;;;;1.50;1.02;;;;;;;;;;4961251;28;20066;-38
2023/08/09 10:57:09;;;;;;;2.33;0.98;;;21.40;76.90;;;;;;4962568;28;20079;-39
2023/08/09 10:59:37;;;;;;;1.77;1.05;;;20.20;80.70;;;;;;4961216;28;20101;-38
2023/08/09 11:02:04;;;;;;;3.10;1.20;;;20.80;81.00;;;;;;4946465;28;20070;-39
2023/08/09 11:04:31;;;;;;;1.90;1.00;;;20.60;81.20;;;;;;4958598;28;20576;-37
2023/08/09 11:06:59;;;;;;;3.28;1.00;;;21.70;66.30;;;;;;4961329;28;20130;-36
2023/08/09 11:09:26;;;;;;;1.35;1.08;;;20.80;64.80;;;;;;4962200;28;20046;-37
2023/08/09 11:11:53;;;;;;;1.45;1.00;;;19.50;80.10;;;;;;4963177;28;20783;-38
2023/08/09 11:14:21;;;;;;;1.58;1.00;;;20.50;79.30;;;;;;4962729;28;20133;-38
2023/08/09 11:16:47;;;;;;;1.95;1.10;;;20.60;80.90;;;;;;4957936;28;20121;-37
2023/08/09 11:19:15;;;;;;;1.10;1.00;;;21.10;63.50;;;;;;4962647;28;20047;-36
2023/08/09 11:21:43;;;;;;;1.77;1.10;;;20.70;63.20;;;;;;4967038;28;20070;-35
2023/08/09 11:24:12;;;;;;;1.90;1.00;;;20.70;63.10;;;;;;4967652;28;20178;-35
2023/08/09 11:26:44;;;;;;;2.63;1.00;;;20.90;73.10;;;;;;4952286;28;20150;-34
2023/08/09 11:29:11;;;;;;;1.50;0.93;;;21.20;80.90;;;;;;4953035;28;20135;-39
2023/08/09 11:31:40;;;;;;;1.52;1.10;;;21.10;81.70;;;;;;4952964;28;20126;-36
2023/08/09 11:34:07;;;;;;;1.40;1.00;;;21.60;81.10;;;;;;4954117;28;20055;-38
2023/08/09 11:36:34;;;;;;;1.05;0.88;;;20.90;81.00;;;;;;4962169;28;20400;-34
2023/08/09 11:39:01;;;;;;;1.67;1.02;;;;;;;;;;4972006;28;20089;-33
2023/08/09 11:41:35;;;;;;;2.10;1.20;;;20.70;81.00;;;;;;4971818;28;20082;-37
2023/08/09 11:44:04;;;;;;;1.42;0.90;;;21.10;80.60;;;;;;4970339;28;20482;-37
2023/08/09 11:46:32;;;;;;;2.83;0.85;;;21.10;80.70;;;;;;4971810;28;20508;-35
2023/08/09 11:49:02;;;;;;;1.38;1.02;;;20.90;63.00;;;;;;4971646;28;20137;-34
2023/08/09 11:51:30;;;;;;;1.85;1.10;;;20.80;81.40;;;;;;4971535;28;20134;-35
2023/08/09 11:53:57;;;;;;;4.30;1.20;;;;;;;;;;4958062;28;20157;-35
2023/08/09 11:56:24;;;;;;;1.60;1.08;;;20.90;80.70;;;;;;4952724;28;20576;-36
2023/08/09 11:58:53;;;;;;;0.80;0.80;;;21.20;80.90;;;;;;4952284;28;20136;-35
2023/08/09 12:01:21;;;;;;;1.80;1.00;;;20.60;80.60;;;;;;4964895;28;20582;-36
2023/08/09 12:03:49;;;;;;;1.30;1.00;;;20.50;80.10;;;;;;4970485;28;20051;-37
2023/08/09 12:06:17;;;;;;;0.80;0.80;;;20.90;72.90;;;;;;4971107;28;20127;-36
2023/08/09 12:08:44;;;;;;;1.52;1.00;;;19.90;78.30;;;;;;4971461;28;20138;-37
2023/08/09 12:11:15;;;;;;;1.60;0.93;;;21.80;81.00;;;;;;4971163;28;20575;-35
2023/08/09 12:13:42;;;;;;;1.88;1.10;;;20.70;75.80;;;;;;4960388;28;20575;-36
2023/08/09 12:16:10;;;;;;;2.25;1.02;;;20.80;80.40;;;;;;4952222;28;20130;-38
2023/08/09 12:18:37;;;;;;;1.83;1.02;;;20.70;80.90;;;;;;4951951;28;20052;-35
2023/08/09 12:21:06;;;;;;;1.30;0.95;;;;;;;;;;4952050;28;20055;-34
2023/08/09 12:23:34;;;;;;;1.10;0.88;;;22.10;80.00;;;;;;4960853;28;20055;-35
2023/08/09 12:26:01;;;;;;;1.92;1.27;;;20.70;78.00;;;;;;4971267;28;20081;-39
2023/08/09 12:28:28;;;;;;;1.38;0.90;;;;;;;;;;4970483;28;20050;-37
2023/08/09 12:30:55;;;;;;;2.03;0.93;;;21.00;80.50;;;;;;4970997;28;20126;-41
2023/08/09 12:33:23;;;;;;;1.98;1.00;;;21.00;62.60;;;;;;4963565;28;20156;-36
2023/08/09 12:35:50;;;;;;;1.00;0.90;;;;;;;;;;4960589;28;20158;-35
2023/08/09 12:38:17;;;;;;;1.55;1.00;;;;;;;;;;4971174;28;20080;-35
2023/08/09 12:40:44;;;;;;;1.45;1.05;;;21.00;80.00;;;;;;4970928;28;20134;-36
2023/08/09 12:43:11;;;;;;;2.05;1.00;;;;;;;;;;4964376;28;20410;-36
2023/08/09 12:45:38;;;;;;;2.10;1.10;;;21.30;80.20;;;;;;4951376;28;20134;-38
2023/08/09 12:48:05;;;;;;;1.58;0.93;;;21.10;62.70;;;;;;4951636;28;20134;-33
2023/08/09 12:50:33;;;;;;;1.30;1.00;;;19.90;69.80;;;;;;4951527;28;20087;-34
2023/08/09 12:53:00;;;;;;;1.63;0.85;;;21.20;80.80;;;;;;4955553;28;20211;-34
2023/08/09 12:55:28;;;;;;;2.88;1.13;;;20.00;79.60;;;;;;4970894;28;20059;-35
2023/08/09 12:57:55;;;;;;;2.15;1.10;;;20.70;66.70;;;;;;4970498;28;20126;-34
2023/08/09 13:00:22;;;;;;;1.20;1.00;;;20.70;80.00;;;;;;4964463;28;20085;-37
2023/08/09 13:02:48;;;;;;;1.52;1.00;;;21.10;81.40;;;;;;4959065;28;20057;-35
2023/08/09 13:05:15;;;;;;;1.13;1.00;;;20.80;70.90;;;;;;4961516;28;20122;-30
2023/08/09 13:07:43;;;;;;;1.13;1.02;;;21.20;80.40;;;;;;4956416;28;20047;-30
2023/08/09 13:10:11;;;;;;;3.13;1.00;;;;;;;;;;4959919;28;20504;-30
2023/08/09 13:12:38;;;;;;;1.58;1.08;;;21.10;80.10;;;;;;4957622;28;20508;-29